createdAt,value
2023-02-08T00:00:01.365Z,21.20
2023-02-08T00:01:01.411Z,18.40
2023-02-08T00:02:01.320Z,19.40
2023-02-08T00:03:03.208Z,20.20
2023-02-08T00:04:02.334Z,20.60
2023-02-08T00:05:02.313Z,20.20
2023-02-08T00:06:02.241Z,19.20
2023-02-08T00:07:01.297Z,20.00
2023-02-08T00:08:03.130Z,18.80
2023-02-08T00:09:02.199Z,20.40
2023-02-08T00:10:02.188Z,20.70
2023-02-08T00:11:02.229Z,19.20
2023-02-08T00:12:02.234Z,18.90
2023-02-08T00:13:02.173Z,19.90
2023-02-08T00:14:03.115Z,19.90
2023-02-08T00:15:02.133Z,19.40
2023-02-08T00:16:01.170Z,20.20
2023-02-08T00:17:01.250Z,18.90
2023-02-08T00:18:02.088Z,18.20
2023-02-08T00:19:02.095Z,19.90
2023-02-08T00:20:02.997Z,19.40
2023-02-08T00:21:02.056Z,20.00
2023-02-08T00:22:02.022Z,18.50
2023-02-08T00:23:02.026Z,19.70
2023-02-08T00:24:02.016Z,19.20
2023-02-08T00:25:02.033Z,19.20
2023-02-08T00:26:02.933Z,20.20
2023-02-08T00:27:01.030Z,18.70
2023-02-08T00:28:04.033Z,18.50
2023-02-08T00:29:01.958Z,17.40
2023-02-08T00:30:01.959Z,19.30
2023-02-08T00:31:02.065Z,18.10
2023-02-08T00:32:02.023Z,19.10
2023-02-08T00:33:00.997Z,18.10
2023-02-08T00:34:00.912Z,18.00
2023-02-08T00:35:01.883Z,18.80
2023-02-08T00:36:01.924Z,17.90
2023-02-08T00:37:01.973Z,18.40
2023-02-08T00:38:01.835Z,19.10
2023-02-08T00:39:01.840Z,20.00
2023-02-08T00:40:00.876Z,18.20
2023-02-08T00:41:01.849Z,21.00
2023-02-08T00:42:01.789Z,18.80
2023-02-08T00:43:00.832Z,20.00
2023-02-08T00:44:02.677Z,19.10
2023-02-08T00:45:01.740Z,21.40
2023-02-08T00:46:01.735Z,21.40
2023-02-08T00:47:00.786Z,19.60
2023-02-08T00:48:00.754Z,19.90
2023-02-08T00:49:02.636Z,19.60
2023-02-08T00:50:01.698Z,19.90
2023-02-08T00:51:01.682Z,19.70
2023-02-08T00:52:01.719Z,19.50
2023-02-08T00:53:01.646Z,19.60
2023-02-08T00:54:02.549Z,19.60
2023-02-08T00:55:01.623Z,18.20
2023-02-08T00:56:01.706Z,18.80
2023-02-08T00:57:00.699Z,19.40
2023-02-08T00:58:01.582Z,20.10
2023-02-08T00:59:01.257Z,19.80
2023-02-08T01:00:07.933Z,18.40
2023-02-08T01:01:01.645Z,19.60
2023-02-08T01:02:01.670Z,19.70
2023-02-08T01:03:00.589Z,18.70
2023-02-08T01:04:00.571Z,19.60
2023-02-08T01:05:01.582Z,18.40
2023-02-08T01:06:02.455Z,21.90
2023-02-08T01:07:01.461Z,20.90
2023-02-08T01:08:01.454Z,19.80
2023-02-08T01:09:01.469Z,21.60
2023-02-08T01:10:01.460Z,20.90
2023-02-08T01:11:02.366Z,21.30
2023-02-08T01:12:01.471Z,21.00
2023-02-08T01:13:01.387Z,21.00
2023-02-08T01:14:01.403Z,20.20
2023-02-08T01:15:01.390Z,19.40
2023-02-08T01:16:00.420Z,20.60
2023-02-08T01:17:02.294Z,19.00
2023-02-08T01:18:01.352Z,21.00
2023-02-08T01:19:00.360Z,20.70
2023-02-08T01:20:01.309Z,19.30
2023-02-08T01:21:01.305Z,20.50
2023-02-08T01:22:02.250Z,21.80
2023-02-08T01:23:01.264Z,20.90
2023-02-08T01:24:01.274Z,21.80
2023-02-08T01:25:01.270Z,20.50
2023-02-08T01:26:01.274Z,21.70
2023-02-08T01:27:02.177Z,20.60
2023-02-08T01:28:01.244Z,20.90
2023-02-08T01:29:00.256Z,20.50
2023-02-08T01:30:00.231Z,20.70
2023-02-08T01:31:01.319Z,21.40
2023-02-08T01:32:01.133Z,21.40
2023-02-08T01:33:02.098Z,22.10
2023-02-08T01:34:00.202Z,22.90
2023-02-08T01:35:00.476Z,21.90
2023-02-08T01:36:01.120Z,23.20
2023-02-08T01:37:00.175Z,22.30
2023-02-08T01:38:01.125Z,24.60
2023-02-08T01:39:02.032Z,22.00
2023-02-08T01:40:00.166Z,23.70
2023-02-08T01:41:01.057Z,23.00
2023-02-08T01:42:01.058Z,23.20
2023-02-08T01:43:01.001Z,26.10
2023-02-08T01:44:01.948Z,23.00
2023-02-08T01:45:00.120Z,24.30
2023-02-08T01:46:01.066Z,23.90
2023-02-08T01:47:00.956Z,24.80
2023-02-08T01:48:01.006Z,25.20
2023-02-08T01:49:00.101Z,24.80
2023-02-08T01:50:01.859Z,23.30
2023-02-08T01:51:00.915Z,25.00
2023-02-08T01:52:00.899Z,25.00
2023-02-08T01:53:00.946Z,25.70
2023-02-08T01:54:00.967Z,23.80
2023-02-08T01:55:00.866Z,24.60
2023-02-08T01:56:01.776Z,25.20
2023-02-08T01:57:00.855Z,26.20
2023-02-08T01:58:00.818Z,25.00
2023-02-08T01:59:00.825Z,25.30
2023-02-08T02:00:00.870Z,24.90
2023-02-08T02:00:59.912Z,25.70
2023-02-08T02:02:01.738Z,25.40
2023-02-08T02:03:00.795Z,25.70
2023-02-08T02:04:00.763Z,25.90
2023-02-08T02:05:00.840Z,24.50
2023-02-08T02:05:59.795Z,25.00
2023-02-08T02:07:00.713Z,26.90
2023-02-08T02:08:01.680Z,24.40
2023-02-08T02:09:00.694Z,25.20
2023-02-08T02:10:00.774Z,24.90
2023-02-08T02:10:59.686Z,26.20
2023-02-08T02:12:00.623Z,24.80
2023-02-08T02:13:00.677Z,25.50
2023-02-08T02:14:01.549Z,23.40
2023-02-08T02:15:00.617Z,24.70
2023-02-08T02:15:59.698Z,24.60
2023-02-08T02:17:00.720Z,24.40
2023-02-08T02:18:00.568Z,24.80
2023-02-08T02:19:01.586Z,24.10
2023-02-08T02:20:00.549Z,22.60
2023-02-08T02:20:59.605Z,23.30
2023-02-08T02:22:00.554Z,22.90
2023-02-08T02:23:00.564Z,23.20
2023-02-08T02:24:00.566Z,21.90
2023-02-08T02:25:01.396Z,23.50
2023-02-08T02:26:00.454Z,23.80
2023-02-08T02:26:59.652Z,22.90
2023-02-08T02:28:00.427Z,22.70
2023-02-08T02:29:00.568Z,21.80
2023-02-08T02:30:00.397Z,22.30
2023-02-08T02:31:01.373Z,21.90
2023-02-08T02:31:59.472Z,22.20
2023-02-08T02:33:00.429Z,22.80
2023-02-08T02:33:59.414Z,21.80
2023-02-08T02:35:00.359Z,21.90
2023-02-08T02:36:00.390Z,21.10
2023-02-08T02:37:00.278Z,21.80
2023-02-08T02:38:00.308Z,23.80
2023-02-08T02:39:00.315Z,22.40
2023-02-08T02:39:59.433Z,21.60
2023-02-08T02:41:00.285Z,21.30
2023-02-08T02:41:59.297Z,22.20
2023-02-08T02:43:01.271Z,21.80
2023-02-08T02:44:00.315Z,23.20
2023-02-08T02:45:00.253Z,23.20
2023-02-08T02:46:00.299Z,23.70
2023-02-08T02:47:00.219Z,21.50
2023-02-08T02:48:01.121Z,21.50
2023-02-08T02:48:59.245Z,21.00
2023-02-08T02:50:00.166Z,21.30
2023-02-08T02:51:00.163Z,20.70
2023-02-08T02:52:00.119Z,20.90
2023-02-08T02:53:01.078Z,20.70
2023-02-08T02:54:00.118Z,23.00
2023-02-08T02:55:00.137Z,22.00
2023-02-08T02:56:00.082Z,22.40
2023-02-08T02:56:59.180Z,21.40
2023-02-08T02:58:00.096Z,20.40
2023-02-08T02:59:01.053Z,20.70
2023-02-08T03:00:00.020Z,20.40
2023-02-08T03:01:00.083Z,20.50
2023-02-08T03:02:00.014Z,20.50
2023-02-08T03:02:59.970Z,21.40
2023-02-08T03:04:01.065Z,19.80
2023-02-08T03:04:59.973Z,21.10
2023-02-08T03:05:59.972Z,19.90
2023-02-08T03:07:00.030Z,19.90
2023-02-08T03:07:58.960Z,23.00
2023-02-08T03:08:59.959Z,21.40
2023-02-08T03:10:00.853Z,21.10
2023-02-08T03:10:59.895Z,21.20
2023-02-08T03:11:59.877Z,20.70
2023-02-08T03:12:58.923Z,21.70
2023-02-08T03:13:59.847Z,21.20
2023-02-08T03:14:59.846Z,20.70
2023-02-08T03:15:59.841Z,20.10
2023-02-08T03:16:59.902Z,20.00
2023-02-08T03:17:59.783Z,19.40
2023-02-08T03:18:58.826Z,19.80
2023-02-08T03:19:59.820Z,19.70
2023-02-08T03:20:59.743Z,19.20
2023-02-08T03:22:00.667Z,19.20
2023-02-08T03:22:59.776Z,19.40
2023-02-08T03:23:58.754Z,19.70
2023-02-08T03:24:59.739Z,19.10
2023-02-08T03:25:59.698Z,20.60
2023-02-08T03:26:59.691Z,21.10
2023-02-08T03:28:00.623Z,20.80
2023-02-08T03:28:59.662Z,19.80
2023-02-08T03:29:59.638Z,19.40
2023-02-08T03:30:59.678Z,18.90
2023-02-08T03:31:59.717Z,18.40
2023-02-08T03:33:00.718Z,20.10
2023-02-08T03:33:58.677Z,19.00
2023-02-08T03:34:58.615Z,19.80
2023-02-08T03:35:59.579Z,19.30
2023-02-08T03:36:59.663Z,18.70
2023-02-08T03:37:59.632Z,18.20
2023-02-08T03:39:00.461Z,20.00
2023-02-08T03:39:59.521Z,17.90
2023-02-08T03:40:59.517Z,17.70
2023-02-08T03:41:59.517Z,17.70
2023-02-08T03:42:59.497Z,17.80
2023-02-08T03:44:00.427Z,17.40
2023-02-08T03:44:58.527Z,17.90
2023-02-08T03:45:59.492Z,18.00
2023-02-08T03:46:59.427Z,18.30
2023-02-08T03:47:59.439Z,18.80
2023-02-08T03:49:00.358Z,17.10
2023-02-08T03:49:59.413Z,17.20
2023-02-08T03:50:59.352Z,16.90
2023-02-08T03:51:59.361Z,18.40
2023-02-08T03:52:59.406Z,19.00
2023-02-08T03:53:59.345Z,18.50
2023-02-08T03:54:59.357Z,17.90
2023-02-08T03:55:58.368Z,17.80
2023-02-08T03:56:58.349Z,18.20
2023-02-08T03:57:59.286Z,17.80
2023-02-08T03:58:59.274Z,17.80
2023-02-08T03:59:59.289Z,18.10
2023-02-08T04:01:00.178Z,18.00
2023-02-08T04:01:59.237Z,17.00
2023-02-08T04:02:59.219Z,17.40
2023-02-08T04:03:59.187Z,17.20
2023-02-08T04:04:59.229Z,16.70
2023-02-08T04:05:59.189Z,18.30
2023-02-08T04:06:59.157Z,17.00
2023-02-08T04:07:59.159Z,16.40
2023-02-08T04:08:59.159Z,18.60
2023-02-08T04:09:59.129Z,17.80
2023-02-08T04:10:59.123Z,17.10
2023-02-08T04:11:58.186Z,16.90
2023-02-08T04:12:59.084Z,16.80
2023-02-08T04:13:59.123Z,16.70
2023-02-08T04:14:59.057Z,18.00
2023-02-08T04:15:58.160Z,18.90
2023-02-08T04:16:59.093Z,17.70
2023-02-08T04:17:59.029Z,17.60
2023-02-08T04:18:59.022Z,16.50
2023-02-08T04:19:58.981Z,18.90
2023-02-08T04:20:58.997Z,18.20
2023-02-08T04:21:58.989Z,18.20
2023-02-08T04:22:59.952Z,16.80
2023-02-08T04:23:58.963Z,17.40
2023-02-08T04:24:58.952Z,17.60
2023-02-08T04:25:58.923Z,18.30
2023-02-08T04:26:58.054Z,18.20
2023-02-08T04:27:58.943Z,17.30
2023-02-08T04:28:59.821Z,16.90
2023-02-08T04:29:58.853Z,18.00
2023-02-08T04:30:58.991Z,17.80
2023-02-08T04:31:57.969Z,17.30
2023-02-08T04:32:57.950Z,16.30
2023-02-08T04:33:57.910Z,18.00
2023-02-08T04:34:59.733Z,18.20
2023-02-08T04:35:58.782Z,17.60
2023-02-08T04:36:58.830Z,17.60
2023-02-08T04:37:57.837Z,17.30
2023-02-08T04:38:58.787Z,17.70
2023-02-08T04:39:57.914Z,18.70
2023-02-08T04:40:59.663Z,16.40
2023-02-08T04:41:58.744Z,18.60
2023-02-08T04:42:57.784Z,17.80
2023-02-08T04:43:58.878Z,17.80
2023-02-08T04:44:57.749Z,17.30
2023-02-08T04:45:59.593Z,16.50
2023-02-08T04:46:57.732Z,16.30
2023-02-08T04:47:59.170Z,16.30
2023-02-08T04:48:59.001Z,15.90
2023-02-08T04:49:58.629Z,17.50
2023-02-08T04:50:58.620Z,17.60
2023-02-08T04:51:59.612Z,16.90
2023-02-08T04:52:57.681Z,17.10
2023-02-08T04:53:57.651Z,17.40
2023-02-08T04:54:58.601Z,17.30
2023-02-08T04:55:58.587Z,17.90
2023-02-08T04:56:58.559Z,17.60
2023-02-08T04:57:57.577Z,17.10
2023-02-08T04:58:57.604Z,17.10
2023-02-08T05:00:00.341Z,16.20
2023-02-08T05:00:57.541Z,17.20
2023-02-08T05:01:59.427Z,15.00
2023-02-08T05:02:58.199Z,16.40
2023-02-08T05:03:57.839Z,16.90
2023-02-08T05:04:58.536Z,18.20
2023-02-08T05:05:57.497Z,17.00
2023-02-08T05:06:57.453Z,16.70
2023-02-08T05:07:59.326Z,16.00
2023-02-08T05:08:57.429Z,17.60
2023-02-08T05:09:57.486Z,17.50
2023-02-08T05:10:57.426Z,16.10
2023-02-08T05:11:57.387Z,18.60
2023-02-08T05:12:57.497Z,17.10
2023-02-08T05:13:58.310Z,16.40
2023-02-08T05:14:58.028Z,16.20
2023-02-08T05:15:57.456Z,16.90
2023-02-08T05:16:58.300Z,16.30
2023-02-08T05:17:58.286Z,17.30
2023-02-08T05:18:58.249Z,17.30
2023-02-08T05:19:58.268Z,16.70
2023-02-08T05:20:58.230Z,16.30
2023-02-08T05:21:57.280Z,15.80
2023-02-08T05:22:58.236Z,17.20
2023-02-08T05:23:58.195Z,17.00
2023-02-08T05:24:58.343Z,17.00
2023-02-08T05:25:58.184Z,16.20
2023-02-08T05:26:57.189Z,17.70
2023-02-08T05:27:57.222Z,16.80
2023-02-08T05:28:57.193Z,16.70
2023-02-08T05:29:58.926Z,16.60
2023-02-08T05:30:58.149Z,16.10
2023-02-08T05:31:57.242Z,17.50
2023-02-08T05:32:57.186Z,16.40
2023-02-08T05:33:57.123Z,16.60
2023-02-08T05:34:57.472Z,15.40
2023-02-08T05:35:58.071Z,17.20
2023-02-08T05:36:58.019Z,16.50
2023-02-08T05:37:58.017Z,16.30
2023-02-08T05:38:57.046Z,18.00
2023-02-08T05:39:57.073Z,17.50
2023-02-08T05:40:57.970Z,17.20
2023-02-08T05:41:57.023Z,17.00
2023-02-08T05:42:57.004Z,16.20
2023-02-08T05:43:56.986Z,17.70
2023-02-08T05:44:57.789Z,17.10
2023-02-08T05:45:57.916Z,16.90
2023-02-08T05:46:56.971Z,18.40
2023-02-08T05:47:56.947Z,16.70
2023-02-08T05:48:57.066Z,18.30
2023-02-08T05:49:56.935Z,16.50
2023-02-08T05:50:57.714Z,16.70
2023-02-08T05:51:57.911Z,16.30
2023-02-08T05:52:56.884Z,16.60
2023-02-08T05:53:57.832Z,15.90
2023-02-08T05:54:57.032Z,17.50
2023-02-08T05:55:56.836Z,17.30
2023-02-08T05:56:57.143Z,17.30
2023-02-08T05:57:58.723Z,16.10
2023-02-08T05:58:56.808Z,17.70
2023-02-08T05:59:56.962Z,17.20
2023-02-08T06:00:56.856Z,17.20
2023-02-08T06:01:56.768Z,16.90
2023-02-08T06:02:56.787Z,17.20
2023-02-08T06:03:57.686Z,16.10
2023-02-08T06:04:56.727Z,16.20
2023-02-08T06:05:56.733Z,17.90
2023-02-08T06:06:56.730Z,16.00
2023-02-08T06:07:56.686Z,16.40
2023-02-08T06:08:58.512Z,17.20
2023-02-08T06:09:56.759Z,16.30
2023-02-08T06:10:56.672Z,16.20
2023-02-08T06:11:56.700Z,17.30
2023-02-08T06:12:56.663Z,15.80
2023-02-08T06:13:56.610Z,17.40
2023-02-08T06:14:58.484Z,16.90
2023-02-08T06:15:56.631Z,16.50
2023-02-08T06:16:56.600Z,17.30
2023-02-08T06:17:56.545Z,17.00
2023-02-08T06:18:56.565Z,16.50
2023-02-08T06:19:56.563Z,17.60
2023-02-08T06:20:57.496Z,18.00
2023-02-08T06:21:56.567Z,15.50
2023-02-08T06:22:56.551Z,17.20
2023-02-08T06:23:56.485Z,17.40
2023-02-08T06:24:56.471Z,16.40
2023-02-08T06:25:56.562Z,17.00
2023-02-08T06:26:57.415Z,17.10
2023-02-08T06:27:57.490Z,15.90
2023-02-08T06:28:56.450Z,16.90
2023-02-08T06:29:56.431Z,16.40
2023-02-08T06:30:56.411Z,17.60
2023-02-08T06:31:56.506Z,17.10
2023-02-08T06:32:57.307Z,16.10
2023-02-08T06:33:56.386Z,17.10
2023-02-08T06:34:56.430Z,18.70
2023-02-08T06:35:56.525Z,16.70
2023-02-08T06:36:56.345Z,16.30
2023-02-08T06:37:56.345Z,17.00
2023-02-08T06:38:57.292Z,18.70
2023-02-08T06:39:57.275Z,17.30
2023-02-08T06:40:56.294Z,18.30
2023-02-08T06:41:56.279Z,19.10
2023-02-08T06:42:56.408Z,18.30
2023-02-08T06:43:57.252Z,17.80
2023-02-08T06:44:56.327Z,19.00
2023-02-08T06:45:56.320Z,18.40
2023-02-08T06:46:56.233Z,18.90
2023-02-08T06:47:56.230Z,17.50
2023-02-08T06:48:57.230Z,17.60
2023-02-08T06:49:56.192Z,17.60
2023-02-08T06:50:56.162Z,19.20
2023-02-08T06:51:56.502Z,18.50
2023-02-08T06:52:56.164Z,17.30
2023-02-08T06:53:57.161Z,18.60
2023-02-08T06:54:56.177Z,17.80
2023-02-08T06:55:56.144Z,17.80
2023-02-08T06:56:56.323Z,18.00
2023-02-08T06:57:56.197Z,18.50
2023-02-08T06:58:56.338Z,18.20
2023-02-08T06:59:57.269Z,17.60
2023-02-08T07:00:56.137Z,17.90
2023-02-08T07:01:56.046Z,17.90
2023-02-08T07:02:56.104Z,17.40
2023-02-08T07:03:56.032Z,18.00
2023-02-08T07:04:56.044Z,17.90
2023-02-08T07:06:04.883Z,18.00
2023-02-08T07:06:57.570Z,19.60
2023-02-08T07:07:56.085Z,17.90
2023-02-08T07:08:55.956Z,17.30
2023-02-08T07:09:56.389Z,18.10
2023-02-08T07:10:56.950Z,17.10
2023-02-08T07:11:55.909Z,18.50
2023-02-08T07:12:55.934Z,18.40
2023-02-08T07:13:56.014Z,18.20
2023-02-08T07:14:55.929Z,17.70
2023-02-08T07:15:55.844Z,17.60
2023-02-08T07:16:56.846Z,19.30
2023-02-08T07:17:56.709Z,18.70
2023-02-08T07:18:56.771Z,17.90
2023-02-08T07:19:55.846Z,17.90
2023-02-08T07:20:55.810Z,17.90
2023-02-08T07:21:57.704Z,18.90
2023-02-08T07:22:55.977Z,17.70
2023-02-08T07:23:55.857Z,17.90
2023-02-08T07:24:55.869Z,18.50
2023-02-08T07:25:56.409Z,18.50
2023-02-08T07:26:55.808Z,17.30
2023-02-08T07:27:56.756Z,17.90
2023-02-08T07:28:55.735Z,17.10
2023-02-08T07:29:55.744Z,17.60
2023-02-08T07:30:55.835Z,17.40
2023-02-08T07:31:55.747Z,17.30
2023-02-08T07:32:56.787Z,19.20
2023-02-08T07:33:55.755Z,17.30
2023-02-08T07:34:55.651Z,17.40
2023-02-08T07:35:56.096Z,18.10
2023-02-08T07:36:55.647Z,17.00
2023-02-08T07:37:55.658Z,15.30
2023-02-08T07:38:56.605Z,16.60
2023-02-08T07:39:55.585Z,16.20
2023-02-08T07:40:55.722Z,16.30
2023-02-08T07:41:55.571Z,16.60
2023-02-08T07:42:55.535Z,17.40
2023-02-08T07:43:55.537Z,17.10
2023-02-08T07:44:57.437Z,15.70
2023-02-08T07:45:56.470Z,16.50
2023-02-08T07:46:55.536Z,17.10
2023-02-08T07:47:55.527Z,16.80
2023-02-08T07:48:55.522Z,17.00
2023-02-08T07:49:55.442Z,16.10
2023-02-08T07:50:56.371Z,16.50
2023-02-08T07:51:55.533Z,16.30
2023-02-08T07:52:55.409Z,17.10
2023-02-08T07:53:55.519Z,16.50
2023-02-08T07:54:56.359Z,15.40
2023-02-08T07:55:56.451Z,16.10
2023-02-08T07:56:55.401Z,16.30
2023-02-08T07:57:55.534Z,16.00
2023-02-08T07:58:55.387Z,15.70
2023-02-08T07:59:55.324Z,16.50
2023-02-08T08:00:56.331Z,15.90
2023-02-08T08:01:55.335Z,16.40
2023-02-08T08:02:55.259Z,17.30
2023-02-08T08:03:55.334Z,16.00
2023-02-08T08:04:55.271Z,17.00
2023-02-08T08:05:55.262Z,16.20
2023-02-08T08:06:56.181Z,15.70
2023-02-08T08:07:55.236Z,16.40
2023-02-08T08:08:55.227Z,15.40
2023-02-08T08:09:55.258Z,16.10
2023-02-08T08:10:55.170Z,17.00
2023-02-08T08:11:56.129Z,16.40
2023-02-08T08:12:55.213Z,17.00
2023-02-08T08:13:55.235Z,15.10
2023-02-08T08:14:56.149Z,15.30
2023-02-08T08:15:55.182Z,16.50
2023-02-08T08:16:55.110Z,16.30
2023-02-08T08:17:56.058Z,16.40
2023-02-08T08:18:55.115Z,16.60
2023-02-08T08:19:55.078Z,18.00
2023-02-08T08:20:55.078Z,16.00
2023-02-08T08:21:55.056Z,16.70
2023-02-08T08:22:55.985Z,17.30
2023-02-08T08:23:55.080Z,16.90
2023-02-08T08:24:55.203Z,17.00
2023-02-08T08:25:55.007Z,16.80
2023-02-08T08:26:55.011Z,16.80
2023-02-08T08:27:55.037Z,17.10
2023-02-08T08:28:55.940Z,15.80
2023-02-08T08:29:55.892Z,16.20
2023-02-08T08:30:55.044Z,16.70
2023-02-08T08:31:55.011Z,17.00
2023-02-08T08:32:54.934Z,17.70
2023-02-08T08:33:55.872Z,16.10
2023-02-08T08:34:54.953Z,16.10
2023-02-08T08:35:54.909Z,16.50
2023-02-08T08:36:54.888Z,17.10
2023-02-08T08:37:54.857Z,16.90
2023-02-08T08:38:55.757Z,17.60
2023-02-08T08:39:54.823Z,17.80
2023-02-08T08:40:55.903Z,17.60
2023-02-08T08:41:54.789Z,17.30
2023-02-08T08:42:55.727Z,16.90
2023-02-08T08:43:54.749Z,17.10
2023-02-08T08:44:56.631Z,17.70
2023-02-08T08:45:54.761Z,16.50
2023-02-08T08:46:54.735Z,17.30
2023-02-08T08:47:54.731Z,16.60
2023-02-08T08:48:54.708Z,17.30
2023-02-08T08:49:54.702Z,17.50
2023-02-08T08:50:55.621Z,17.80
2023-02-08T08:51:54.694Z,18.00
2023-02-08T08:52:54.657Z,18.00
2023-02-08T08:53:54.646Z,16.30
2023-02-08T08:54:54.647Z,16.70
2023-02-08T08:55:54.676Z,17.40
2023-02-08T08:56:55.650Z,17.40
2023-02-08T08:57:54.599Z,17.90
2023-02-08T08:58:54.859Z,18.40
2023-02-08T08:59:55.587Z,17.90
2023-02-08T09:00:54.634Z,18.20
2023-02-08T09:01:55.613Z,19.10
2023-02-08T09:02:54.573Z,17.70
2023-02-08T09:03:54.548Z,17.60
2023-02-08T09:04:54.507Z,17.70
2023-02-08T09:05:54.481Z,16.50
2023-02-08T09:06:54.506Z,17.30
2023-02-08T09:07:55.380Z,16.90
2023-02-08T09:08:54.493Z,17.80
2023-02-08T09:09:54.447Z,17.80
2023-02-08T09:10:54.427Z,20.10
2023-02-08T09:11:54.410Z,18.70
2023-02-08T09:12:54.383Z,17.80
2023-02-08T09:13:56.323Z,19.20
2023-02-08T09:14:54.365Z,18.70
2023-02-08T09:15:54.514Z,17.50
2023-02-08T09:16:54.366Z,18.30
2023-02-08T09:17:54.333Z,19.00
2023-02-08T09:18:54.437Z,18.10
2023-02-08T09:19:56.206Z,18.80
2023-02-08T09:20:54.342Z,19.10
2023-02-08T09:21:54.321Z,18.40
2023-02-08T09:22:54.263Z,16.80
2023-02-08T09:23:54.253Z,19.10
2023-02-08T09:24:55.175Z,18.30
2023-02-08T09:25:54.230Z,18.70
2023-02-08T09:26:55.140Z,18.40
2023-02-08T09:27:55.223Z,18.90
2023-02-08T09:28:54.169Z,18.10
2023-02-08T09:29:55.098Z,18.20
2023-02-08T09:30:55.166Z,19.40
2023-02-08T09:31:55.194Z,19.10
2023-02-08T09:32:54.148Z,19.50
2023-02-08T09:33:54.172Z,19.20
2023-02-08T09:34:55.055Z,17.70
2023-02-08T09:35:54.103Z,18.40
2023-02-08T09:36:55.029Z,18.80
2023-02-08T09:37:55.010Z,19.20
2023-02-08T09:38:54.107Z,19.50
2023-02-08T09:39:54.993Z,19.50
2023-02-08T09:40:54.954Z,19.30
2023-02-08T09:41:54.017Z,18.20
2023-02-08T09:42:54.083Z,20.20
2023-02-08T09:43:54.026Z,20.50
2023-02-08T09:44:54.968Z,19.50
2023-02-08T09:46:00.112Z,19.70
2023-02-08T09:46:55.462Z,18.70
2023-02-08T09:47:53.973Z,21.10
2023-02-08T09:48:54.881Z,19.30
2023-02-08T09:49:53.963Z,19.50
2023-02-08T09:50:55.816Z,20.40
2023-02-08T09:51:53.928Z,21.70
2023-02-08T09:52:53.937Z,19.40
2023-02-08T09:53:53.925Z,18.90
2023-02-08T09:54:53.936Z,19.80
2023-02-08T09:56:02.000Z,19.80
2023-02-08T09:56:53.838Z,19.70
2023-02-08T09:57:53.824Z,19.20
2023-02-08T09:58:53.795Z,18.30
2023-02-08T09:59:54.763Z,19.40
2023-02-08T10:00:54.849Z,20.10
2023-02-08T10:01:53.765Z,18.60
2023-02-08T10:02:53.751Z,19.40
2023-02-08T10:03:53.863Z,21.10
2023-02-08T10:04:54.672Z,19.70
2023-02-08T10:05:53.746Z,19.10
2023-02-08T10:06:55.593Z,20.30
2023-02-08T10:07:53.689Z,19.40
2023-02-08T10:08:53.765Z,20.00
2023-02-08T10:09:53.663Z,19.80
2023-02-08T10:10:53.665Z,19.40
2023-02-08T10:11:53.656Z,19.90
2023-02-08T10:12:54.585Z,19.70
2023-02-08T10:13:53.613Z,19.70
2023-02-08T10:14:53.631Z,20.40
2023-02-08T10:15:53.589Z,19.90
2023-02-08T10:16:53.582Z,20.20
2023-02-08T10:17:53.619Z,20.70
2023-02-08T10:18:54.468Z,21.50
2023-02-08T10:19:53.547Z,20.00
2023-02-08T10:20:53.535Z,19.10
2023-02-08T10:21:53.529Z,20.10
2023-02-08T10:22:53.511Z,19.80
2023-02-08T10:23:53.549Z,21.50
2023-02-08T10:24:54.416Z,20.00
2023-02-08T10:25:53.505Z,18.80
2023-02-08T10:26:53.466Z,19.20
2023-02-08T10:27:53.482Z,19.90
2023-02-08T10:28:53.486Z,18.40
2023-02-08T10:29:53.394Z,19.90
2023-02-08T10:30:54.376Z,21.10
2023-02-08T10:31:53.494Z,20.80
2023-02-08T10:32:53.357Z,21.40
2023-02-08T10:33:53.418Z,20.20
2023-02-08T10:34:53.356Z,19.80
2023-02-08T10:35:53.357Z,19.90
2023-02-08T10:36:54.309Z,19.50
2023-02-08T10:37:54.317Z,20.00
2023-02-08T10:38:53.402Z,18.90
2023-02-08T10:39:53.558Z,18.70
2023-02-08T10:40:53.294Z,20.20
2023-02-08T10:41:54.231Z,19.10
2023-02-08T10:42:53.236Z,19.60
2023-02-08T10:43:54.202Z,18.70
2023-02-08T10:44:53.225Z,19.10
2023-02-08T10:45:53.256Z,20.20
2023-02-08T10:46:54.123Z,19.00
2023-02-08T10:47:53.243Z,21.50
2023-02-08T10:48:53.206Z,19.50
2023-02-08T10:49:53.166Z,20.40
2023-02-08T10:50:53.205Z,20.60
2023-02-08T10:51:53.227Z,20.70
2023-02-08T10:52:54.042Z,20.70
2023-02-08T10:53:53.091Z,20.50
2023-02-08T10:54:53.141Z,19.40
2023-02-08T10:55:53.086Z,19.60
2023-02-08T10:56:53.089Z,19.10
2023-02-08T10:57:53.971Z,20.10
2023-02-08T10:58:53.108Z,19.40
2023-02-08T10:59:53.074Z,19.10
2023-02-08T11:00:53.091Z,19.70
2023-02-08T11:01:53.992Z,19.80
2023-02-08T11:02:54.882Z,19.00
2023-02-08T11:03:53.022Z,20.20
2023-02-08T11:04:53.008Z,19.20
2023-02-08T11:05:52.969Z,20.30
2023-02-08T11:06:53.009Z,19.20
2023-02-08T11:07:53.892Z,19.30
2023-02-08T11:08:52.928Z,20.30
2023-02-08T11:09:52.930Z,19.70
2023-02-08T11:10:52.902Z,19.70
2023-02-08T11:11:52.888Z,20.10
2023-02-08T11:12:53.829Z,20.20
2023-02-08T11:13:53.810Z,20.60
2023-02-08T11:14:52.828Z,20.30
2023-02-08T11:15:52.838Z,19.80
2023-02-08T11:17:54.375Z,20.00
2023-02-08T11:18:51.671Z,20.20
2023-02-08T11:19:52.633Z,21.20
2023-02-08T11:20:51.682Z,19.60
2023-02-08T11:21:51.727Z,19.00
2023-02-08T11:22:51.587Z,19.30
2023-02-08T11:23:51.618Z,20.10
2023-02-08T11:24:51.600Z,19.70
2023-02-08T11:25:52.499Z,19.00
2023-02-08T11:26:51.565Z,19.70
2023-02-08T11:27:51.574Z,19.70
2023-02-08T11:28:51.515Z,20.00
2023-02-08T11:29:51.531Z,18.70
2023-02-08T11:30:51.557Z,18.90
2023-02-08T11:31:52.456Z,19.30
2023-02-08T11:32:51.470Z,20.40
2023-02-08T11:33:51.460Z,20.90
2023-02-08T11:34:51.436Z,19.90
2023-02-08T11:35:51.442Z,20.00
2023-02-08T11:36:52.416Z,19.70
2023-02-08T11:37:51.400Z,19.80
2023-02-08T11:38:51.399Z,19.40
2023-02-08T11:39:51.522Z,19.30
2023-02-08T11:40:51.507Z,18.90
2023-02-08T11:41:51.368Z,20.90
2023-02-08T11:42:52.284Z,19.40
2023-02-08T11:43:51.417Z,18.90
2023-02-08T11:44:51.445Z,19.00
2023-02-08T11:45:51.387Z,19.60
2023-02-08T11:46:51.291Z,18.50
2023-02-08T11:47:51.449Z,18.90
2023-02-08T11:48:52.290Z,18.90
2023-02-08T11:49:51.252Z,20.00
2023-02-08T11:50:52.178Z,19.90
2023-02-08T11:51:51.252Z,19.10
2023-02-08T11:52:51.284Z,19.90
2023-02-08T11:53:52.157Z,18.50
2023-02-08T11:54:51.590Z,19.70
2023-02-08T11:55:51.187Z,20.70
2023-02-08T11:56:51.156Z,18.70
2023-02-08T11:57:51.256Z,19.00
2023-02-08T11:58:52.465Z,19.60
2023-02-08T11:59:53.127Z,19.40
2023-02-08T12:00:51.132Z,18.50
2023-02-08T12:01:51.184Z,19.20
2023-02-08T12:02:51.078Z,19.40
2023-02-08T12:03:59.211Z,19.70
2023-02-08T12:04:52.327Z,19.40
2023-02-08T12:05:51.113Z,21.20
2023-02-08T12:06:51.039Z,19.40
2023-02-08T12:07:51.062Z,19.20
2023-02-08T12:08:51.018Z,20.10
2023-02-08T12:09:53.109Z,17.90
2023-02-08T12:10:51.557Z,18.70
2023-02-08T12:11:52.910Z,19.80
2023-02-08T12:12:51.893Z,19.70
2023-02-08T12:13:51.510Z,19.40
2023-02-08T12:14:57.356Z,18.50
2023-02-08T12:15:58.153Z,18.60
2023-02-08T12:16:52.424Z,18.80
2023-02-08T12:17:51.858Z,19.20
2023-02-08T12:18:50.865Z,18.90
2023-02-08T12:19:52.439Z,19.40
2023-02-08T12:20:50.868Z,19.10
2023-02-08T12:21:51.026Z,20.00
2023-02-08T12:22:51.056Z,19.60
2023-02-08T12:23:50.833Z,18.20
2023-02-08T12:24:53.473Z,19.60
2023-02-08T12:25:53.778Z,19.80
2023-02-08T12:26:50.774Z,19.70
2023-02-08T12:27:50.863Z,19.90
2023-02-08T12:28:51.179Z,19.20
2023-02-08T12:29:50.766Z,19.90
2023-02-08T12:30:51.718Z,19.60
2023-02-08T12:31:50.808Z,19.60
2023-02-08T12:32:50.690Z,18.70
2023-02-08T12:33:51.396Z,20.00
2023-02-08T12:34:50.653Z,20.50
2023-02-08T12:36:03.517Z,18.80
2023-02-08T12:36:53.097Z,19.10
2023-02-08T12:37:50.624Z,18.20
2023-02-08T12:38:50.602Z,19.10
2023-02-08T12:39:50.593Z,19.80
2023-02-08T12:40:52.143Z,18.80
2023-02-08T12:41:50.603Z,18.50
2023-02-08T12:42:56.814Z,18.60
2023-02-08T12:43:50.553Z,18.80
2023-02-08T12:44:50.616Z,19.80
2023-02-08T12:45:50.692Z,18.00
2023-02-08T12:46:50.517Z,18.70
2023-02-08T12:48:03.456Z,19.20
2023-02-08T12:48:52.927Z,19.50
2023-02-08T12:49:50.479Z,20.00
2023-02-08T12:50:50.489Z,19.50
2023-02-08T12:51:50.729Z,19.70
2023-02-08T12:52:51.047Z,19.60